Flight Track Log - Related Links

Times and Time Zones

All times are in EST time to prevent confusion due to time zone crossing. See the UAL117 flight status page for this flight to view local times or setup timezone preferences in your user account.

Time Position Orientation Groundspeed Altitude Reporting Facility
EST Latitude Longitude Course Direction KTS MPH feet Rate Location/Type
Tue 03:44:23 PM 40.7333 -74.1167 27° Northeast 199 229 2,600  Level New York TRACON
Tue 03:45:23 PM 40.7833 -74.0833 62° Northeast 215 247 3,800 1,415 Climbing New York TRACON
Tue 03:46:26 PM 40.8191 -73.9928 71° East 277 319 5,500 1,600 Climbing FlightAware ADS-B
Tue 03:46:38 PM 40.8242 -73.9734 67° East 285 328 5,800 1,946 Climbing FlightAware ADS-B
Tue 03:47:40 PM 40.8578 -73.8707 46° Northeast 290 334 7,900 1,958 Climbing FlightAware ADS-B
Tue 03:49:02 PM 40.9275 -73.7753 46° Northeast 286 329 10,500 1,606 Climbing Boston Center
Tue 03:50:02 PM 41.0014 -73.6722 47° Northeast 324 373 11,700 1,350 Climbing Boston Center
Tue 03:51:02 PM 41.0756 -73.5661 45° Northeast 376 433 13,200 1,500 Climbing Boston Center
Tue 03:52:02 PM 41.1536 -73.4628 48° Northeast 390 449 14,700 1,650 Climbing Boston Center
Tue 03:53:02 PM 41.2339 -73.3453 46° Northeast 411 473 16,500 1,700 Climbing Boston Center
Tue 03:54:02 PM 41.3181 -73.2278 49° Northeast 422 486 18,100 1,300 Climbing Boston Center
Tue 03:55:02 PM 41.4003 -73.1014 60° Northeast 428 493 19,100 1,100 Climbing Boston Center
Tue 03:56:02 PM 41.4656 -72.9525 60° Northeast 449 517 20,300 1,250 Climbing Boston Center
Tue 03:57:02 PM 41.5308 -72.8006 64° Northeast 461 531 21,600 1,350 Climbing Boston Center
Tue 03:58:02 PM 41.5853 -72.6511 73° East 474 545 23,000 1,200 Climbing Boston Center
Tue 03:59:02 PM 41.6272 -72.4706 72° East 486 559 24,000 1,000 Climbing Boston Center
Tue 04:00:02 PM 41.6708 -72.2872 69° East 504 580 25,000 1,000 Climbing Boston Center
Tue 04:01:02 PM 41.7225 -72.1064 29° Northeast 514 592 26,000 900 Climbing Boston Center
Tue 04:02:02 PM 41.8347 -72.0222 22° Northeast 454 522 26,800 850 Climbing Boston Center
Tue 04:03:02 PM 41.9556 -71.9572 29° Northeast 445 512 27,700 850 Climbing Boston Center
Tue 04:04:02 PM 42.0739 -71.8694 29° Northeast 457 526 28,500 700 Climbing Boston Center
Tue 04:05:02 PM 42.1922 -71.7817 28° Northeast 478 550 29,100 700 Climbing Boston Center
Tue 04:06:02 PM 42.3167 -71.6906 29° Northeast 484 557 29,900 950 Climbing Boston Center
Tue 04:07:02 PM 42.4369 -71.6017 28° Northeast 490 564 31,000 500 Climbing Boston Center
Tue 04:08:02 PM 42.5736 -71.5042 28° Northeast 495 570 30,900  Descending Boston Center
Tue 04:09:02 PM 42.6939 -71.4175 29° Northeast 495 570 31,000 50 Climbing Boston Center
Tue 04:10:02 PM 42.8139 -71.3250 30° Northeast 495 570 31,000 -50 Level Boston Center
Tue 04:11:02 PM 42.9192 -71.2436 29° Northeast 495 570 30,900  Descending Boston Center
Tue 04:12:02 PM 43.0392 -71.1533 29° Northeast 495 570 31,000  Climbing Boston Center
Tue 04:13:02 PM 43.1611 -71.0597 29° Northeast 495 570 30,900  Descending Boston Center
Tue 04:14:02 PM 43.2786 -70.9686 29° Northeast 495 570 31,000 50 Climbing Boston Center
Tue 04:15:02 PM 43.3964 -70.8772 29° Northeast 495 570 31,000  Level Boston Center
Tue 04:16:02 PM 43.5139 -70.7881 31° Northeast 484 557 31,000 -50 Level Boston Center
Tue 04:17:02 PM 43.6292 -70.6933 29° Northeast 479 551 30,900  Descending Boston Center
Tue 04:18:02 PM 43.7403 -70.6094 29° Northeast 466 536 31,000 50 Climbing Boston Center
Tue 04:19:02 PM 43.8536 -70.5225 29° Northeast 466 536 31,000  Level Boston Center
Tue 04:20:02 PM 43.9686 -70.4325 30° Northeast 466 536 31,000  Level Boston Center
Tue 04:21:02 PM 44.0839 -70.3417 29° Northeast 466 536 31,000  Level Boston Center
Tue 04:22:02 PM 44.2008 -70.2508 30° Northeast 466 536 31,000  Level Boston Center
Tue 04:23:02 PM 44.3158 -70.1567 29° Northeast 472 543 31,000  Level Boston Center
Tue 04:24:02 PM 44.4286 -70.0678 30° Northeast 467 537 31,000  Level Boston Center
Tue 04:25:02 PM 44.5453 -69.9728 30° Northeast 467 537 31,000  Level Boston Center
Tue 04:26:02 PM 44.6600 -69.8806 30° Northeast 467 537 31,000  Level Boston Center
Tue 04:27:02 PM 44.7869 -69.7783 30° Northeast 467 537 31,000  Level Boston Center
Tue 04:28:02 PM 44.8994 -69.6856 30° Northeast 467 537 31,000  Level Boston Center
Tue 04:29:02 PM 45.0158 -69.5919 29° Northeast 472 543 31,000  Level Boston Center
Tue 04:30:02 PM 45.1303 -69.5008 31° Northeast 472 543 31,000  Level Boston Center
Tue 04:31:02 PM 45.2444 -69.4036 30° Northeast 467 537 31,000  Level Boston Center
Tue 04:32:02 PM 45.3464 -69.3214 31° Northeast 467 537 31,000  Level Boston Center
Tue 04:33:02 PM 45.4625 -69.2233 30° Northeast 472 543 31,000  Level Boston Center
Tue 04:34:02 PM 45.5764 -69.1281 30° Northeast 472 543 31,000  Level Boston Center
Tue 04:35:02 PM 45.6925 -69.0322 31° Northeast 472 543 31,000 -50 Level Boston Center
Tue 04:36:02 PM 45.8083 -68.9331 31° Northeast 472 543 30,900 -50 Descending Boston Center
Tue 04:37:02 PM 45.9219 -68.8364 31° Northeast 472 543 30,900 50 Level Boston Center
Tue 04:38:02 PM 46.0356 -68.7394 31° Northeast 472 543 31,000 50 Climbing Boston Center
Tue 04:39:02 PM 46.1511 -68.6392 30° Northeast 472 543 31,000  Level Boston Center
Tue 04:40:02 PM 46.2667 -68.5411 30° Northeast 472 543 31,000  Level Boston Center
Tue 04:41:02 PM 46.3819 -68.4431 31° Northeast 472 543 31,000  Level Boston Center
Tue 04:42:02 PM 46.4972 -68.3411 30° Northeast 472 543 31,000  Level Boston Center
Tue 04:43:02 PM 46.6103 -68.2453 32° Northeast 472 543 31,000  Level Boston Center
Tue 04:44:02 PM 46.7253 -68.1397 23° Northeast 472 543 31,000  Level Boston Center
Tue 04:45:02 PM 46.8475 -68.0636 19° North 472 543 31,000  Level Boston Center
Tue 04:46:02 PM 46.9803 -67.9953 19° North 472 543 31,000  Level Boston Center
Tue 04:47:02 PM 47.0947 -67.9372 21° North 466 536 31,000  Level Boston Center
Tue 04:48:00 PM 47.2167 -67.8667 19° North 480 552 31,000  Level Moncton Center
Tue 04:49:00 PM 47.3500 -67.8000 21° North 470 541 31,000  Level Moncton Center
Tue 04:50:00 PM 47.4667 -67.7333 11° North 470 541 31,000  Level Moncton Center
Tue 04:51:00 PM 47.5833 -67.7000 30° Northeast 480 552 31,000  Level Moncton Center
Tue 04:52:00 PM 47.7000 -67.6000 10° North 480 552 31,000  Level Moncton Center
Tue 04:53:00 PM 47.8333 -67.5667 19° North 470 541 31,000  Level Moncton Center
Tue 04:54:00 PM 47.9667 -67.5000 21° North 480 552 31,000  Level Moncton Center
Tue 04:55:00 PM 48.0833 -67.4333 18° North 470 541 31,000  Level Moncton Center
Tue 04:56:00 PM 48.2167 -67.3667 21° North 480 552 31,000  Level Moncton Center
Tue 04:57:00 PM 48.3333 -67.3000 18° North 480 552 31,000  Level Moncton Center
Tue 04:58:00 PM 48.4667 -67.2333 25° Northeast 480 552 31,000  Level Moncton Center
Tue 04:59:00 PM 48.5833 -67.1500 21° North 480 552 31,000  Level Moncton Center
Tue 05:00:00 PM 48.7000 -67.0833 16° North 480 552 31,000 250 Level Moncton Center
Tue 05:01:00 PM 48.8500 -67.0167 16° North 480 552 31,500 700 Climbing Moncton Center
Tue 05:02:00 PM 48.9667 -66.9667 18° North 480 552 32,400 750 Climbing Moncton Center
Tue 05:03:00 PM 49.1000 -66.9000 18° North 480 552 33,000 300 Climbing Moncton Center
Tue 05:04:00 PM 49.2333 -66.8333 20° North 490 564 33,000  Level Moncton Center
Tue 05:05:00 PM 49.3500 -66.7667 22° Northeast 480 552 33,000  Level Moncton Center
Tue 05:06:00 PM 49.4833 -66.6833 20° North 480 552 33,000  Level Moncton Center
Tue 05:07:00 PM 49.6000 -66.6167 18° North 490 564 33,000  Level Moncton Center
Tue 05:08:00 PM 49.7333 -66.5500 25° Northeast 490 564 33,000  Level Moncton Center
Tue 05:09:00 PM 49.8500 -66.4667 16° North 490 564 33,000  Level Moncton Center
Tue 05:10:00 PM 50.0000 -66.4000 20° North 480 552 33,000  Level Moncton Center
Tue 05:11:00 PM 50.1167 -66.3333 22° Northeast 480 552 33,000  Level Moncton Center
Tue 05:12:00 PM 50.2500 -66.2500 North 480 552 33,000  Level Moncton Center
Tue 05:13:00 PM 50.3667 -66.2333 13° North 480 552 33,000  Level Moncton Center
Tue 05:14:00 PM 50.5000 -66.1833 13° North 480 552 33,000  Level Moncton Center
Tue 05:15:00 PM 50.6333 -66.1333 13° North 480 552 33,000  Level Moncton Center
Tue 05:16:00 PM 50.7667 -66.0833 North 480 552 33,000  Level Moncton Center
Tue 05:17:00 PM 50.9000 -66.0500 13° North 480 552 33,000  Level Moncton Center
Tue 05:18:00 PM 51.0333 -66.0000 10° North 480 552 33,000  Level Moncton Center
Tue 05:19:00 PM 51.1500 -65.9667 12° North 480 552 33,000  Level Moncton Center
Tue 05:20:00 PM 51.3000 -65.9167 15° North 480 552 33,000  Level Moncton Center
Tue 05:21:00 PM 51.4167 -65.8667 13° North 480 552 33,000  Level Moncton Center
Tue 05:22:00 PM 51.5500 -65.8167 12° North 480 552 33,000  Level Moncton Center
Tue 05:23:00 PM 51.7000 -65.7667 North 480 552 33,000  Level Moncton Center
Tue 05:24:00 PM 51.8333 -65.7500 21° North 480 552 33,000  Level Moncton Center
Tue 05:25:00 PM 51.9667 -65.6667 15° North 490 564 33,000  Level Moncton Center
Tue 05:26:00 PM 52.0833 -65.6167 17° North 490 564 33,000  Level Moncton Center
Tue 05:27:00 PM 52.2167 -65.5500 21° North 490 564 33,000  Level Moncton Center
Tue 05:28:00 PM 52.3500 -65.4667 15° North 490 564 33,000  Level Moncton Center
Tue 05:29:00 PM 52.4667 -65.4167 21° North 490 564 33,000  Level Moncton Center
Tue 05:30:00 PM 52.6000 -65.3333 13° North 490 564 33,000  Level Moncton Center
Tue 05:31:00 PM 52.7333 -65.2833 21° North 490 564 33,000  Level Moncton Center
Tue 05:32:00 PM 52.8667 -65.2000 23° Northeast 480 552 33,000  Level Moncton Center
Tue 05:33:00 PM 52.9833 -65.1167 18° North 500 575 33,000  Level Moncton Center
Tue 05:34:00 PM 53.1333 -65.0333 14° North 490 564 33,000  Level Moncton Center
Tue 05:35:00 PM 53.2500 -64.9833 20° North 510 587 33,000  Level Moncton Center
Tue 05:36:00 PM 53.3833 -64.9000 13° North 500 575 33,000  Level Moncton Center
Tue 05:37:00 PM 53.5167 -64.8500 20° North 510 587 33,000  Level Moncton Center
Tue 05:38:00 PM 53.6500 -64.7667 20° North 490 564 33,000  Level Moncton Center
Tue 05:39:00 PM 53.7833 -64.6833 16° North 510 587 33,000  Level Moncton Center
Tue 05:40:00 PM 53.9167 -64.6167 20° North 490 564 33,000  Level Moncton Center
Tue 05:41:00 PM 54.0500 -64.5333 23° Northeast 500 575 33,000  Level Moncton Center
Tue 05:42:00 PM 54.1667 -64.4500 11° North 490 564 33,000  Level Moncton Center
Tue 05:43:00 PM 54.3167 -64.4000 23° Northeast 500 575 33,000  Level Moncton Center
Tue 05:44:00 PM 54.4333 -64.3167 16° North 500 575 33,000  Level Moncton Center
Tue 05:45:00 PM 54.5667 -64.2500 18° North 500 575 33,000  Level Moncton Center
Tue 05:46:00 PM 54.7167 -64.1667 22° Northeast 500 575 33,000  Level Moncton Center
Tue 05:47:00 PM 54.8333 -64.0833 14° North 490 564 33,000  Level Moncton Center
Tue 05:48:00 PM 54.9833 -64.0167 20° North 500 575 33,000  Level Moncton Center
Tue 05:49:00 PM 55.1167 -63.9333 18° North 500 575 33,000  Level Moncton Center
Tue 05:50:00 PM 55.2333 -63.8667 12° North 500 575 33,000  Level Moncton Center
Tue 05:51:00 PM 55.3667 -63.8167 North 500 575 33,000  Level Moncton Center
Tue 05:52:00 PM 55.5000 -63.7833 23° Northeast 500 575 33,000  Level Moncton Center
Tue 05:53:00 PM 55.6333 -63.6833 North 510 587 33,000  Level Moncton Center
Tue 05:54:00 PM 55.7667 -63.6500 19° North 490 564 33,000  Level Moncton Center
Tue 05:55:00 PM 55.9000 -63.5667 North 500 575 33,000  Level Moncton Center
Tue 05:56:00 PM 56.0333 -63.5333 16° North 490 564 33,000  Level Moncton Center
Tue 05:57:00 PM 56.1667 -63.4667 16° North 490 564 33,000  Level Moncton Center
Tue 05:58:00 PM 56.3000 -63.4000 17° North 490 564 33,000  Level Moncton Center
Tue 05:59:23 PM 56.4833 -63.3000 12° North 490 564 33,000  Level Gander Center
Tue 06:00:23 PM 56.6167 -63.2500 17° North 500 575 33,000  Level Gander Center
Tue 06:01:24 PM 56.7667 -63.1667 13° North 500 575 33,000  Level Gander Center
Tue 06:02:24 PM 56.8833 -63.1167 19° North 500 575 33,000  Level Gander Center
Tue 06:03:24 PM 57.0167 -63.0333 14° North 490 564 33,000  Level Gander Center
Tue 06:04:23 PM 57.1667 -62.9667 11° North 500 575 33,000  Level Gander Center
Tue 06:05:23 PM 57.3000 -62.9167 11° North 490 564 33,000  Level Gander Center
Tue 06:06:23 PM 57.4333 -62.8667 22° Northeast 490 564 33,000  Level Gander Center
Tue 06:07:23 PM 57.5667 -62.7667 11° North 500 575 33,000  Level Gander Center
Tue 06:08:23 PM 57.7000 -62.7167 13° North 490 564 33,000  Level Gander Center
Tue 06:09:23 PM 57.8167 -62.6667 22° Northeast 500 575 33,000  Level Gander Center
Tue 06:10:23 PM 57.9500 -62.5667 11° North 500 575 33,000  Level Gander Center
Tue 06:11:23 PM 58.0833 -62.5167 19° North 490 564 33,000  Level Gander Center
Tue 06:12:24 PM 58.2333 -62.4167 13° North 490 564 33,000 50 Level Gander Center
Tue 06:13:24 PM 58.3500 -62.3667 15° North 500 575 33,100 550 Climbing Gander Center
Tue 06:14:24 PM 58.4833 -62.3000 11° North 490 564 34,100 857 Climbing Gander Center
Tue 06:15:23 PM 58.6167 -62.2500 21° North 500 575 34,800 450 Climbing Gander Center
Tue 06:16:24 PM 58.7500 -62.1500 14° North 500 575 35,000 99 Climbing Gander Center
Tue 06:17:24 PM 58.8833 -62.0833 11° North 500 575 35,000  Level Gander Center
Tue 06:18:24 PM 59.0167 -62.0333 21° North 490 564 35,000  Level Gander Center
Tue 06:19:24 PM 59.1500 -61.9333 14° North 490 564 35,000  Level Gander Center
Tue 06:20:24 PM 59.2833 -61.8667 14° North 500 575 35,000  Level Gander Center
Tue 06:21:24 PM 59.4167 -61.8000 20° North 500 575 35,000  Level Gander Center
Tue 06:22:24 PM 59.5333 -61.7167 13° North 500 575 35,000  Level Gander Center
Tue 06:23:24 PM 59.6833 -61.6500 23° Northeast 500 575 35,000  Level Gander Center
Tue 06:24:24 PM 59.8000 -61.5500 16° North 490 564 35,000  Level Gander Center
Tue 06:25:24 PM 59.9167 -61.4833 21° North 490 564 35,000  Level Gander Center
Tue 06:26:24 PM 60.0500 -61.3833 20° North 500 575 35,000  Level Gander Center
Tue 06:27:24 PM 60.1833 -61.2833 24° Northeast 500 575 35,000  Level Gander Center
Tue 06:28:24 PM 60.3333 -61.1500 20° North 490 564 35,000  Level Gander Center
Tue 06:29:24 PM 60.4667 -61.0500 16° North 500 575 35,000  Level Gander Center
Tue 06:30:24 PM 60.5833 -60.9833 23° Northeast 500 575 35,000  Level Gander Center
Tue 06:31:24 PM 60.7167 -60.8667 20° North 500 575 35,000  Level Gander Center
Tue 06:32:24 PM 60.8500 -60.7667 20° North 500 575 35,000  Level Gander Center
Tue 06:33:24 PM 60.9833 -60.6667 20° North 500 575 35,000  Level Gander Center
Tue 06:34:24 PM 61.1167 -60.5667 26° Northeast 500 575 35,000  Level Gander Center
Tue 06:35:24 PM 61.2333 -60.4500 20° North 500 575 35,000  Level Gander Center
Tue 06:36:24 PM 61.3667 -60.3500 23° Northeast 500 575 35,000  Level Gander Center
Tue 06:37:24 PM 61.5000 -60.2333 25° Northeast 500 575 35,000  Level Gander Center
Tue 06:38:24 PM 61.6000 -60.1333 16° North 500 575 35,000  Level Gander Center
Tue 06:39:24 PM 61.7333 -60.0500 19° North 500 575 35,000  Level Gander Center
Tue 06:40:24 PM 61.8667 -59.9500 22° Northeast 500 575 35,000  Level Gander Center
Tue 06:41:24 PM 62.0000 -59.8333 25° Northeast 500 575 35,000  Level Gander Center
Tue 06:42:24 PM 62.1167 -59.7167 19° North 500 575 35,000  Level Gander Center
Tue 06:43:24 PM 62.2500 -59.6167 22° Northeast 500 575 35,000  Level Gander Center
Tue 06:44:24 PM 62.3833 -59.5000 22° Northeast 500 575 35,000  Level Gander Center
Tue 06:45:24 PM 62.5167 -59.3833 22° Northeast 500 575 35,000  Level Gander Center
Tue 06:46:24 PM 62.6500 -59.2667 28° Northeast 500 575 35,000  Level Gander Center
Tue 06:47:24 PM 62.7500 -59.1500 22° Northeast 500 575 35,000  Level Gander Center
Tue 06:48:24 PM 62.8833 -59.0333 16° North 500 575 35,000  Level Gander Center
Tue 06:49:24 PM 63.0167 -58.9500 22° Northeast 500 575 35,000  Level Gander Center
Tue 06:50:24 PM 63.1500 -58.8333 24° Northeast 500 575 35,000  Level Gander Center
Tue 06:51:24 PM 63.2833 -58.7000 24° Northeast 500 575 35,000  Level Gander Center
Tue 06:52:24 PM 63.4000 -58.5833 24° Northeast 500 575 35,000  Level Gander Center
Tue 06:53:24 PM 63.5167 -58.4667 24° Northeast 500 575 35,000  Level Gander Center
Tue 06:54:24 PM 63.6500 -58.3333 21° North 500 575 35,000  Level Gander Center
Tue 06:55:24 PM 63.7833 -58.2167 24° Northeast 500 575 35,000  Level Gander Center
Tue 06:56:24 PM 63.9167 -58.0833 21° North 500 575 35,000  Level Gander Center
Tue 06:57:24 PM 64.0500 -57.9667 26° Northeast 500 575 35,000  Level Gander Center
Tue 06:58:24 PM 64.1667 -57.8333 26° Northeast 500 575 35,000  Level Gander Center
Tue 06:59:24 PM 64.2833 -57.7000 21° North 500 575 35,000  Level Gander Center
Tue 07:00:24 PM 64.4333 -57.5667 26° Northeast 500 575 35,000  Level Gander Center
Tue 07:01:24 PM 64.5500 -57.4333 26° Northeast 510 587 35,000  Level Gander Center
Tue 07:02:24 PM 64.6667 -57.3000 23° Northeast 500 575 35,000  Level Gander Center
Tue 07:03:24 PM 64.8000 -57.1667 15° North 500 575 35,000  Level Gander Center
Tue 07:04:24 PM 64.9333 -57.0833 28° Northeast 500 575 35,000  Level Gander Center
Tue 07:05:24 PM 65.0500 -56.9333 North 510 587 35,000  Level Gander Center
Tue 07:06:24 PM 65.1833 -56.8833 North 500 575 35,000  Level Gander Center
Tue 07:07:24 PM 65.3167 -56.8667 10° North 500 575 35,000  Level Gander Center
Tue 07:08:24 PM 65.4667 -56.8000 12° North 500 575 35,000  Level Gander Center
Tue 07:09:24 PM 65.6000 -56.7333 North 500 575 35,000  Level Gander Center
Tue 07:10:24 PM 65.7333 -56.7167 10° North 500 575 35,000  Level Gander Center
Tue 07:11:24 PM 65.8833 -56.6500 North 500 575 35,000  Level Gander Center
Tue 07:12:24 PM 66.0000 -56.6333 10° North 510 587 35,000  Level Gander Center
Tue 07:13:24 PM 66.1500 -56.5667 11° North 510 587 35,000  Level Gander Center
Tue 07:14:24 PM 66.2833 -56.5000 North 510 587 35,000  Level Gander Center
Tue 07:15:24 PM 66.4167 -56.4667 10° North 510 587 35,000  Level Gander Center
Tue 07:16:24 PM 66.5667 -56.4000 North 500 575 35,000  Level Gander Center
Tue 07:17:24 PM 66.6833 -56.3833 11° North 500 575 35,000  Level Gander Center
Tue 07:18:24 PM 66.8167 -56.3167 10° North 500 575 35,000  Level Gander Center
Tue 07:19:24 PM 66.9667 -56.2500 71° East 500 575 35,000  Level Gander Center
Tue 07:20:12 PM 67.0000 -56.0000 North 500 575 35,000  Level Edmonton Center
Tue 07:21:12 PM 67.1333 -55.9500 10° North 500 575 35,000  Level Edmonton Center
Tue 07:22:12 PM 67.2833 -55.8833 15° North 510 587 35,000  Level Edmonton Center
Tue 07:23:12 PM 67.4000 -55.8000 10° North 500 575 35,000  Level Edmonton Center
Tue 07:24:12 PM 67.5500 -55.7333 North 500 575 35,000  Level Edmonton Center
Tue 07:25:12 PM 67.6667 -55.7167 10° North 500 575 35,000  Level Edmonton Center
Tue 07:26:12 PM 67.8167 -55.6500 11° North 510 587 35,000  Level Edmonton Center
Tue 07:27:12 PM 67.9500 -55.5833 North 500 575 35,000  Level Edmonton Center
Tue 07:28:12 PM 68.0833 -55.5333 11° North 500 575 35,000  Level Edmonton Center
Tue 07:29:12 PM 68.2167 -55.4667 North 510 587 35,000  Level Edmonton Center
Tue 07:30:12 PM 68.3500 -55.4333 10° North 500 575 35,000  Level Edmonton Center
Tue 07:31:12 PM 68.4833 -55.3667 North 500 575 35,000  Level Edmonton Center
Tue 07:32:12 PM 68.6333 -55.3000 10° North 500 575 35,000  Level Edmonton Center
Tue 07:33:12 PM 68.7667 -55.2333 10° North 500 575 35,000  Level Edmonton Center
Tue 07:34:12 PM 68.9000 -55.1667 North 500 575 35,000  Level Edmonton Center
Tue 07:35:12 PM 69.0333 -55.1333 347° North 500 575 35,000  Level Edmonton Center
Tue 07:36:24 PM 69.2667 -55.2833 North 500 575 35,000  Level Gander Center
Tue 07:37:24 PM 69.4167 -55.2500 82° East 500 575 35,000  Level Gander Center
Tue 07:38:12 PM 69.4333 -54.8833 North 500 575 35,000  Level Edmonton Center
Tue 07:39:12 PM 69.5667 -54.8500 12° North 500 575 35,000  Level Edmonton Center
Tue 07:40:12 PM 69.7000 -54.7667 10° North 500 575 35,000  Level Edmonton Center
Tue 07:41:12 PM 69.8333 -54.7000 12° North 500 575 35,000  Level Edmonton Center
Tue 07:42:12 PM 69.9667 -54.6167 341° North 500 575 35,000  Level Edmonton Center
Tue 07:43:24 PM 70.2167 -54.8667 North 500 575 35,000  Level Gander Center
Tue 07:44:24 PM 70.3500 -54.8333 North 500 575 35,000  Level Gander Center
Tue 07:51:49 PM 71.3360 -54.5190 North  Level FlightAware Approximate
Tue 07:52:49 PM 71.4693 -54.5147 North  Level FlightAware Approximate
Tue 07:53:49 PM 71.6014 -54.4512 North  Level FlightAware Approximate
Tue 07:54:49 PM 71.7335 -54.3868 North  Level FlightAware Approximate
Tue 07:55:49 PM 71.8656 -54.3215 North  Level FlightAware Approximate
Tue 07:56:49 PM 71.9977 -54.2553 North  Level FlightAware Approximate
Tue 07:57:49 PM 72.1298 -54.1882 North  Level FlightAware Approximate
Tue 07:58:49 PM 72.2618 -54.1200 353° North  Level FlightAware Approximate
Tue 07:59:49 PM 72.3899 -54.1720 North  Level FlightAware Approximate
Tue 08:00:49 PM 72.5218 -54.1008 North  Level FlightAware Approximate
Tue 08:01:49 PM 72.6537 -54.0285 North  Level FlightAware Approximate
Tue 08:02:49 PM 72.7856 -53.9552 North  Level FlightAware Approximate
Tue 08:03:49 PM 72.9175 -53.8807 North  Level FlightAware Approximate
Tue 08:04:49 PM 73.0493 -53.8052 10° North  Level FlightAware Approximate
Tue 08:05:49 PM 73.1811 -53.7284 10° North  Level FlightAware Approximate
Tue 08:06:49 PM 73.3129 -53.6506 10° North  Level FlightAware Approximate
Tue 08:07:49 PM 73.4446 -53.5714 10° North  Level FlightAware Approximate
Tue 08:08:49 PM 73.5763 -53.4911 10° North  Level FlightAware Approximate
Tue 08:09:49 PM 73.7080 -53.4095 10° North  Level FlightAware Approximate
Tue 08:10:49 PM 73.8397 -53.3266 10° North  Level FlightAware Approximate
Tue 08:11:49 PM 73.9713 -53.2424 10° North  Level FlightAware Approximate
Tue 08:12:49 PM 74.1029 -53.1568 10° North  Level FlightAware Approximate
Tue 08:13:49 PM 74.2344 -53.0699 10° North  Level FlightAware Approximate
Tue 08:14:49 PM 74.3659 -52.9815 10° North  Level FlightAware Approximate
Tue 08:15:49 PM 74.4974 -52.8917 10° North  Level FlightAware Approximate
Tue 08:16:49 PM 74.6289 -52.8003 11° North  Level FlightAware Approximate
Tue 08:17:49 PM 74.7603 -52.7074 11° North  Level FlightAware Approximate
Tue 08:18:49 PM 74.8916 -52.6130 11° North  Level FlightAware Approximate
Tue 08:19:49 PM 75.0230 -52.5169 10° North  Level FlightAware Approximate
Tue 08:20:49 PM 75.1545 -52.4252 10° North  Level FlightAware Approximate
Tue 08:21:49 PM 75.2861 -52.3320 10° North  Level FlightAware Approximate
Tue 08:22:49 PM 75.4176 -52.2370 10° North  Level FlightAware Approximate
Tue 08:23:49 PM 75.5490 -52.1404 10° North  Level FlightAware Approximate
Tue 08:24:49 PM 75.6805 -52.0421 11° North  Level FlightAware Approximate
Tue 08:25:49 PM 75.8119 -51.9420 11° North  Level FlightAware Approximate
Tue 08:26:49 PM 75.9432 -51.8401 11° North  Level FlightAware Approximate
Tue 08:27:49 PM 76.0745 -51.7362 11° North  Level FlightAware Approximate
Tue 08:28:49 PM 76.2057 -51.6305 11° North  Level FlightAware Approximate
Tue 08:29:49 PM 76.3369 -51.5227 11° North  Level FlightAware Approximate
Tue 08:30:49 PM 76.4681 -51.4129 11° North  Level FlightAware Approximate
Tue 08:31:49 PM 76.5992 -51.3010 11° North  Level FlightAware Approximate
Tue 08:32:49 PM 76.7303 -51.1869 11° North  Level FlightAware Approximate
Tue 08:33:49 PM 76.8613 -51.0705 12° North  Level FlightAware Approximate
Tue 08:34:49 PM 76.9922 -50.9519 12° North  Level FlightAware Approximate
Tue 08:35:49 PM 77.1231 -50.8309 12° North  Level FlightAware Approximate
Tue 08:36:49 PM 77.2540 -50.7075 12° North  Level FlightAware Approximate
Tue 08:37:49 PM 77.3847 -50.5816 12° North  Level FlightAware Approximate
Tue 08:38:49 PM 77.5155 -50.4530 12° North  Level FlightAware Approximate
Tue 08:39:49 PM 77.6461 -50.3218 12° North  Level FlightAware Approximate
Tue 08:40:49 PM 77.7767 -50.1878 12° North  Level FlightAware Approximate
Tue 08:41:49 PM 77.9072 -50.0510 13° North  Level FlightAware Approximate
Tue 08:42:49 PM 78.0377 -49.9112 13° North  Level FlightAware Approximate
Tue 08:43:49 PM 78.1681 -49.7684 13° North  Level FlightAware Approximate
Tue 08:44:49 PM 78.2984 -49.6224 13° North  Level FlightAware Approximate
Tue 08:45:49 PM 78.4287 -49.4732 13° North  Level FlightAware Approximate
Tue 08:46:49 PM 78.5588 -49.3207 13° North  Level FlightAware Approximate
Tue 08:47:49 PM 78.6889 -49.1647 13° North  Level FlightAware Approximate
Tue 08:48:49 PM 78.8189 -49.0051 14° North  Level FlightAware Approximate
Tue 08:49:49 PM 78.9488 -48.8418 14° North  Level FlightAware Approximate
Tue 08:50:49 PM 79.0787 -48.6747 14° North  Level FlightAware Approximate
Tue 08:51:49 PM 79.2084 -48.5036 14° North  Level FlightAware Approximate
Tue 08:52:49 PM 79.3380 -48.3284 14° North  Level FlightAware Approximate
Tue 08:53:49 PM 79.4676 -48.1490 14° North  Level FlightAware Approximate
Tue 08:54:49 PM 79.5970 -47.9651 15° North  Level FlightAware Approximate
Tue 08:55:49 PM 79.7263 -47.7766 15° North  Level FlightAware Approximate
Tue 08:56:49 PM 79.8555 -47.5834 15° North  Level FlightAware Approximate
Tue 08:57:49 PM 79.9846 -47.3853 15° North  Level FlightAware Approximate
Tue 08:58:49 PM 80.1136 -47.1820 15° North  Level FlightAware Approximate
Tue 08:59:49 PM 80.2424 -46.9735 16° North  Level FlightAware Approximate
Tue 09:00:49 PM 80.3712 -46.7594 16° North  Level FlightAware Approximate
Tue 09:01:49 PM 80.4997 -46.5395 16° North  Level FlightAware Approximate
Tue 09:02:49 PM 80.6282 -46.3137 16° North  Level FlightAware Approximate
Tue 09:03:49 PM 80.7565 -46.0817 16° North  Level FlightAware Approximate
Tue 09:04:49 PM 80.8846 -45.8432 17° North  Level FlightAware Approximate
Tue 09:05:49 PM 81.0126 -45.5980 17° North  Level FlightAware Approximate
Tue 09:06:49 PM 81.1404 -45.3457 17° North  Level FlightAware Approximate
Tue 09:07:49 PM 81.2681 -45.0861 17° North  Level FlightAware Approximate
Tue 09:08:49 PM 81.3955 -44.8189 39° Northeast  Level FlightAware Approximate
Tue 09:09:49 PM 81.4974 -44.2680 19° North  Level FlightAware Approximate
Tue 09:10:49 PM 81.6236 -43.9683 19° North  Level FlightAware Approximate
Tue 09:11:49 PM 81.7496 -43.6596 20° North  Level FlightAware Approximate
Tue 09:12:49 PM 81.8754 -43.3413 20° North  Level FlightAware Approximate
Tue 09:13:49 PM 82.0009 -43.0131 20° North  Level FlightAware Approximate
Tue 09:14:49 PM 82.1261 -42.6745 21° North  Level FlightAware Approximate
Tue 09:15:49 PM 82.2511 -42.3251 21° North  Level FlightAware Approximate
Tue 09:16:49 PM 82.3757 -41.9643 21° North  Level FlightAware Approximate
Tue 09:17:49 PM 82.5001 -41.5916 22° Northeast  Level FlightAware Approximate
Tue 09:18:49 PM 82.6241 -41.2064 22° Northeast  Level FlightAware Approximate
Tue 09:19:49 PM 82.7478 -40.8081 22° Northeast  Level FlightAware Approximate
Tue 09:20:49 PM 82.8711 -40.3961 23° Northeast  Level FlightAware Approximate
Tue 09:21:49 PM 82.9941 -39.9697 23° Northeast  Level FlightAware Approximate
Tue 09:22:49 PM 83.1166 -39.5282 24° Northeast  Level FlightAware Approximate
Tue 09:23:49 PM 83.2387 -39.0708 24° Northeast  Level FlightAware Approximate
Tue 09:24:49 PM 83.3604 -38.5966 25° Northeast  Level FlightAware Approximate
Tue 09:25:49 PM 83.4817 -38.1049 25° Northeast  Level FlightAware Approximate
Tue 09:26:49 PM 83.6024 -37.5946 26° Northeast  Level FlightAware Approximate
Tue 09:27:49 PM 83.7226 -37.0648 26° Northeast  Level FlightAware Approximate
Tue 09:28:49 PM 83.8422 -36.5145 27° Northeast  Level FlightAware Approximate
Tue 09:29:49 PM 83.9613 -35.9425 27° Northeast  Level FlightAware Approximate
Tue 09:30:49 PM 84.0798 -35.3477 28° Northeast  Level FlightAware Approximate
Tue 09:31:49 PM 84.1975 -34.7287 29° Northeast  Level FlightAware Approximate
Tue 09:32:49 PM 84.3146 -34.0843 29° Northeast  Level FlightAware Approximate
Tue 09:33:49 PM 84.4310 -33.4129 30° Northeast  Level FlightAware Approximate
Tue 09:34:49 PM 84.5465 -32.7130 31° Northeast  Level FlightAware Approximate
Tue 09:35:49 PM 84.6612 -31.9831 31° Northeast  Level FlightAware Approximate
Tue 09:36:49 PM 84.7750 -31.2213 32° Northeast  Level FlightAware Approximate
Tue 09:37:49 PM 84.8879 -30.4259 340° North  Level FlightAware Approximate
Tue 09:38:49 PM 85.0089 -30.9328 33° Northeast  Level FlightAware Approximate
Tue 09:39:49 PM 85.1201 -30.0695 34° Northeast  Level FlightAware Approximate
Tue 09:40:49 PM 85.2301 -29.1662 35° Northeast  Level FlightAware Approximate
Tue 09:41:49 PM 85.3388 -28.2207 36° Northeast  Level FlightAware Approximate
Tue 09:42:49 PM 85.4462 -27.2303 37° Northeast  Level FlightAware Approximate
Tue 09:43:49 PM 85.5522 -26.1926 38° Northeast  Level FlightAware Approximate
Tue 09:44:49 PM 85.6567 -25.1046 39° Northeast  Level FlightAware Approximate
Tue 09:45:49 PM 85.7596 -23.9635 40° Northeast  Level FlightAware Approximate
Tue 09:46:49 PM 85.8607 -22.7663 41° Northeast  Level FlightAware Approximate
Tue 09:47:49 PM 85.9599 -21.5099 43° Northeast  Level FlightAware Approximate
Tue 09:48:49 PM 86.0570 -20.1910 43° Northeast  Level FlightAware Approximate
Tue 09:49:49 PM 86.1531 -18.8229 46° Northeast  Level FlightAware Approximate
Tue 09:50:49 PM 86.2448 -17.3548 47° Northeast  Level FlightAware Approximate
Tue 09:51:49 PM 86.3338 -15.8144 49° Northeast  Level FlightAware Approximate
Tue 09:52:49 PM 86.4201 -14.1986 51° Northeast  Level FlightAware Approximate
Tue 09:53:49 PM 86.5034 -12.5046 52° Northeast  Level FlightAware Approximate
Tue 09:54:49 PM 86.5836 -10.7296 54° Northeast  Level FlightAware Approximate
Tue 09:55:49 PM 86.6602 -8.8713 56° Northeast  Level FlightAware Approximate
Tue 09:56:49 PM 86.7333 -6.9279 58° Northeast  Level FlightAware Approximate
Tue 09:57:49 PM 86.8024 -4.8982 60° Northeast  Level FlightAware Approximate
Tue 09:58:49 PM 86.8673 -2.7817 62° Northeast  Level FlightAware Approximate
Tue 09:59:49 PM 86.9278 -0.5789 64° Northeast  Level FlightAware Approximate
Tue 10:00:49 PM 86.9836 1.7088 66° East  Level FlightAware Approximate
Tue 10:01:49 PM 87.0343 4.0786 69° East  Level FlightAware Approximate
Tue 10:02:49 PM 87.0799 6.5266 71° East  Level FlightAware Approximate
Tue 10:03:49 PM 87.1200 9.0475 74° East  Level FlightAware Approximate
Tue 10:04:49 PM 87.1544 11.6342 76° East  Level FlightAware Approximate
Tue 10:05:49 PM 87.1828 14.2786 79° East  Level FlightAware Approximate
Tue 10:06:49 PM 87.2051 16.9710 82° East  Level FlightAware Approximate
Tue 10:07:49 PM 87.2212 19.7006 84° East  Level FlightAware Approximate
Tue 10:08:49 PM 87.2309 22.4557 87° East  Level FlightAware Approximate
Tue 10:09:49 PM 87.2342 25.2237 90° East  Level FlightAware Approximate
Tue 10:10:49 PM 87.2310 27.9919 93° East  Level FlightAware Approximate
Tue 10:11:49 PM 87.2214 30.7473 95° East  Level FlightAware Approximate
Tue 10:12:49 PM 87.2055 33.4775 98° East  Level FlightAware Approximate
Tue 10:13:49 PM 87.1833 36.1707 101° East  Level FlightAware Approximate
Tue 10:14:49 PM 87.1549 38.8161 104° East  Level FlightAware Approximate
Tue 10:15:49 PM 87.1207 41.4040 106° East  Level FlightAware Approximate
Tue 10:16:49 PM 87.0807 43.9262 109° East  Level FlightAware Approximate
Tue 10:17:49 PM 87.0353 46.3756 111° Southeast  Level FlightAware Approximate
Tue 10:18:49 PM 86.9846 48.7470 113° Southeast  Level FlightAware Approximate
Tue 10:19:49 PM 86.9289 51.0363 116° Southeast  Level FlightAware Approximate
Tue 10:20:49 PM 86.8685 53.2408 118° Southeast  Level FlightAware Approximate
Tue 10:21:49 PM 86.8032 55.3547 116° Southeast  Level Estimated
Tue 10:22:49 PM 86.4087 66.2273 131° Southeast  Level FlightAware Approximate
Tue 10:23:49 PM 86.3193 67.7955 131° Southeast  Level Estimated
Tue 10:24:49 PM 86.2357 69.2597 134° Southeast  Level FlightAware Approximate
Tue 10:25:49 PM 86.1413 70.6845 134° Southeast  Level Estimated
Tue 10:26:49 PM 86.0427 72.1648 137° Southeast  Level FlightAware Approximate
Tue 10:27:49 PM 85.9438 73.4519 136° Southeast  Level Estimated
Tue 10:28:49 PM 85.8515 74.6622 140° Southeast  Level FlightAware Approximate
Tue 10:29:49 PM 85.7488 75.8317 139° Southeast  Level Estimated
Tue 10:30:49 PM 85.6418 77.0562 142° Southeast  Level FlightAware Approximate
Tue 10:31:49 PM 85.5358 78.1145 141° Southeast  Level Estimated
Tue 10:32:49 PM 85.4368 79.1183 144° Southeast  Level FlightAware Approximate
Tue 10:33:49 PM 85.3280 80.0826 143° Southeast  Level Estimated
Tue 10:34:49 PM 85.2146 81.1011 146° Southeast  Level FlightAware Approximate
Tue 10:35:49 PM 85.1032 81.9769 145° Southeast  Level Estimated
Tue 10:36:49 PM 84.9993 82.8154 148° Southeast  Level FlightAware Approximate
Tue 10:37:49 PM 84.8858 83.6166 146° Southeast  Level Estimated
Tue 10:38:49 PM 84.7677 84.4707 149° Southeast  Level FlightAware Approximate
Tue 10:39:49 PM 84.6522 85.2018 148° Southeast  Level Estimated
Tue 10:40:49 PM 84.5445 85.9085 151° Southeast  Level FlightAware Approximate
Tue 10:41:49 PM 84.4274 86.5803 149° Southeast  Level Estimated
Tue 10:42:49 PM 84.3055 87.3034 152° Southeast  Level FlightAware Approximate
Tue 10:43:49 PM 84.1870 87.9193 151° Southeast  Level Estimated
Tue 10:44:49 PM 84.0763 88.5206 153° Southeast  Level FlightAware Approximate
Tue 10:45:49 PM 83.9565 89.0892 152° Southeast  Level Estimated
Tue 10:46:49 PM 83.8316 89.7072 155° Southeast  Level FlightAware Approximate
Tue 10:47:49 PM 83.7107 90.2310 153° Southeast  Level Estimated
Tue 10:48:49 PM 83.5976 90.7475 156° South  Level FlightAware Approximate
Tue 10:49:49 PM 83.4757 91.2332 154° Southeast  Level Estimated
Tue 10:50:49 PM 83.3485 91.7662 157° South  Level FlightAware Approximate
Tue 10:51:49 PM 83.2256 92.2157 155° Southeast  Level Estimated
Tue 10:52:49 PM 83.1108 92.6634 158° South  Level FlightAware Approximate
Tue 10:53:49 PM 82.9871 93.0819 156° South  Level Estimated
Tue 10:54:49 PM 82.8568 93.5478 158° South  Level FlightAware Approximate
Tue 10:55:49 PM 82.7323 93.9367 157° South  Level Estimated
Tue 10:56:49 PM 82.6158 94.3252 159° South  Level FlightAware Approximate
Tue 10:57:49 PM 82.4907 94.6888 158° South  Level Estimated
Tue 10:58:49 PM 82.3736 95.0536 160° South  Level FlightAware Approximate
Tue 10:59:49 PM 82.2479 95.3941 158° South  Level Estimated
Tue 11:00:49 PM 82.1167 95.7740 161° South  Level FlightAware Approximate
Tue 11:01:49 PM 81.9904 96.0923 159° South  Level Estimated
Tue 11:02:49 PM 81.8722 96.4146 161° South  Level FlightAware Approximate
Tue 11:03:49 PM 81.7455 96.7139 160° South  Level Estimated
Tue 11:04:49 PM 81.6131 97.0506 162° South  Level FlightAware Approximate
Tue 11:05:49 PM 81.4860 97.3313 160° South  Level Estimated
Tue 11:06:49 PM 81.3668 97.6180 162° South  Level FlightAware Approximate
Tue 11:07:49 PM 81.2393 97.8826 161° South  Level Estimated
Tue 11:08:49 PM 81.1038 98.1880 163° South  Level FlightAware Approximate
Tue 11:09:49 PM 80.9759 98.4369 161° South  Level Estimated
Tue 11:10:49 PM 80.8560 98.6946 164° South  Level FlightAware Approximate
Tue 11:11:49 PM 80.7277 98.9299 162° South  Level Estimated
Tue 11:12:49 PM 80.5937 99.2006 164° South  Level FlightAware Approximate
Tue 11:13:49 PM 80.4651 99.4227 162° South  Level Estimated
Tue 11:14:49 PM 80.3445 99.6548 164° South  Level FlightAware Approximate
Tue 11:15:49 PM 80.2157 99.8654 163° South  Level Estimated
Tue 11:16:49 PM 80.0809 100.1097 165° South  Level FlightAware Approximate
Tue 11:17:49 PM 79.9518 100.3090 163° South  Level Estimated
Tue 11:18:49 PM 79.8307 100.5191 165° South  Level FlightAware Approximate
Tue 11:19:49 PM 79.7013 100.7084 163° South  Level Estimated
Tue 11:20:49 PM 79.5660 100.9301 166° South  Level FlightAware Approximate
Tue 11:21:49 PM 79.4364 101.1097 164° South  Level Estimated
Tue 11:22:49 PM 79.3081 101.3103 166° South  Level FlightAware Approximate
Tue 11:23:49 PM 79.1783 101.4812 164° South  Level Estimated
Tue 11:24:49 PM 79.0424 101.6819 166° South  Level FlightAware Approximate
Tue 11:25:49 PM 78.9124 101.8443 165° South  Level Estimated
Tue 11:26:49 PM 78.7903 102.0178 167° South  Level FlightAware Approximate
Tue 11:27:49 PM 78.6601 102.1728 165° South  Level Estimated
Tue 11:28:49 PM 78.5238 102.3565 167° South  Level FlightAware Approximate
Tue 11:29:49 PM 78.3934 102.5042 165° South  Level Estimated
Tue 11:30:49 PM 78.2710 102.6634 167° South  Level FlightAware Approximate
Tue 11:31:49 PM 78.1405 102.8047 166° South  Level Estimated
Tue 11:32:49 PM 78.0038 102.9735 168° South  Level FlightAware Approximate
Tue 11:33:49 PM 77.8731 103.1084 166° South  Level Estimated
Tue 11:34:49 PM 77.7504 103.2549 168° South  Level FlightAware Approximate
Tue 11:35:49 PM 77.6196 103.3841 166° South  Level Estimated
Tue 11:36:49 PM 77.4825 103.5399 168° South  Level FlightAware Approximate
Tue 11:37:49 PM 77.3516 103.6634 166° South  Level Estimated
Tue 11:38:49 PM 77.2286 103.7989 169° South  Level FlightAware Approximate
Tue 11:39:49 PM 77.0975 103.9175 167° South  Level Estimated
Tue 11:40:49 PM 76.9602 104.0616 169° South  Level FlightAware Approximate
Tue 11:41:49 PM 76.8290 104.1752 167° South  Level Estimated
Tue 11:42:49 PM 76.7057 104.3008 169° South  Level FlightAware Approximate
Tue 11:43:49 PM 76.5744 104.4100 167° South  Level Estimated
Tue 11:44:49 PM 76.4369 104.5438 169° South  Level FlightAware Approximate
Tue 11:45:49 PM 76.3055 104.6485 167° South  Level Estimated
Tue 11:46:49 PM 76.1717 104.7742 170° South  Level FlightAware Approximate
Tue 11:47:49 PM 76.0402 104.8748 168° South  Level Estimated
Tue 11:48:49 PM 75.9024 104.9995 170° South  Level FlightAware Approximate
Tue 11:49:49 PM 75.7708 105.0961 168° South  Level Estimated
Tue 11:50:49 PM 75.6471 105.2053 170° South  Level FlightAware Approximate
Tue 11:51:49 PM 75.5155 105.2984 168° South  Level Estimated
Tue 11:52:49 PM 75.3775 105.4148 170° South  Level FlightAware Approximate
Tue 11:53:49 PM 75.2458 105.5044 168° South  Level Estimated
Tue 11:54:49 PM 75.1219 105.6065 170° South  Level FlightAware Approximate
Tue 11:55:49 PM 74.9901 105.6929 168° South  Level Estimated
Tue 11:56:49 PM 74.8519 105.8019 171° South  Level FlightAware Approximate
Tue 11:57:49 PM 74.7200 105.8852 168° South  Level Estimated
Tue 11:58:49 PM 74.5882 105.9862 171° South  Level FlightAware Approximate
Tue 11:59:49 PM 74.4563 106.0665 169° South  Level Estimated
Wed 12:00:49 AM 74.3179 106.1687 171° South  Level FlightAware Approximate
Wed 12:01:49 AM 74.1859 106.2462 169° South  Level Estimated
Wed 12:02:49 AM 74.0617 106.3361 171° South  Level FlightAware Approximate
Wed 12:03:49 AM 73.9296 106.4109 169° South  Level Estimated
Wed 12:04:49 AM 73.7911 106.5071 171° South  Level FlightAware Approximate
Wed 12:05:49 AM 73.6590 106.5794 169° South  Level Estimated
Wed 12:06:49 AM 73.5347 106.6641 171° South  Level FlightAware Approximate
Wed 12:07:49 AM 73.4025 106.7340 169° South  Level Estimated
Wed 12:08:49 AM 73.2638 106.8247 172° South  Level FlightAware Approximate
Wed 12:09:49 AM 73.1316 106.8923 169° South  Level Estimated
Wed 12:10:49 AM 73.0071 106.9723 172° South  Level FlightAware Approximate
Wed 12:11:49 AM 72.8748 107.0378 170° South  Level Estimated
Wed 12:12:49 AM 72.7361 107.1234 172° South  Level FlightAware Approximate
Wed 12:13:49 AM 72.6037 107.1868 170° South  Level Estimated
Wed 12:14:49 AM 72.4792 107.2625 172° South  Level FlightAware Approximate
Wed 12:15:49 AM 72.3468 107.3238 170° South  Level Estimated
Wed 12:16:49 AM 72.2079 107.4050 172° South  Level FlightAware Approximate
Wed 12:17:49 AM 72.0755 107.4644 170° South  Level Estimated
Wed 12:18:49 AM 71.9508 107.5361 172° South  Level FlightAware Approximate
Wed 12:19:49 AM 71.8183 107.5938 170° South  Level Estimated
Wed 12:20:49 AM 71.6793 107.6708 172° South  Level FlightAware Approximate
Wed 12:21:49 AM 71.5468 107.7266 170° South  Level Estimated
Wed 12:22:49 AM 71.4221 107.7948 173° South  Level FlightAware Approximate
Wed 12:23:49 AM 71.2895 107.8490 170° South  Level Estimated
Wed 12:24:49 AM 71.1504 107.9221 173° South  Level FlightAware Approximate
Wed 12:25:49 AM 71.0179 107.9748 170° South  Level Estimated
Wed 12:26:49 AM 70.8930 108.0396 173° South  Level FlightAware Approximate
Wed 12:27:49 AM 70.7604 108.0907 171° South  Level Estimated
Wed 12:28:49 AM 70.6212 108.1603 173° South  Level FlightAware Approximate
Wed 12:29:49 AM 70.4886 108.2099 171° South  Level Estimated
Wed 12:30:49 AM 70.3636 108.2717 173° South  Level FlightAware Approximate
Wed 12:31:49 AM 70.2310 108.3199 171° South  Level Estimated
Wed 12:32:49 AM 70.0917 108.3862 173° South  Level FlightAware Approximate
Wed 12:33:49 AM 69.9590 108.4331 171° South  Level Estimated
Wed 12:34:49 AM 69.8340 108.4920 173° South  Level FlightAware Approximate
Wed 12:35:49 AM 69.7012 108.5376 171° South  Level Estimated
Wed 12:36:49 AM 69.5619 108.6009 173° South  Level FlightAware Approximate
Wed 12:37:49 AM 69.4291 108.6452 171° South  Level Estimated
Wed 12:38:49 AM 69.3041 108.7016 173° South  Level FlightAware Approximate
Wed 12:39:49 AM 69.1713 108.7447 171° South  Level Estimated
Wed 12:40:49 AM 69.0319 108.8052 174° South  Level FlightAware Approximate
Wed 12:41:49 AM 68.8990 108.8472 171° South  Level Estimated
Wed 12:42:49 AM 68.7739 108.9011 174° South  Level FlightAware Approximate
Wed 12:43:49 AM 68.6411 108.9420 171° South  Level Estimated
Wed 12:44:49 AM 68.5016 108.9999 174° South  Level FlightAware Approximate
Wed 12:45:49 AM 68.3687 109.0397 171° South  Level Estimated
Wed 12:46:49 AM 68.2436 109.0913 174° South  Level FlightAware Approximate
Wed 12:47:49 AM 68.1107 109.1301 172° South  Level Estimated
Wed 12:48:49 AM 67.9711 109.1856 174° South  Level FlightAware Approximate
Wed 12:49:49 AM 67.8382 109.2234 171° South  Level Estimated
Wed 12:50:49 AM 67.7130 109.2730 174° South  Level FlightAware Approximate
Wed 12:51:49 AM 67.5800 109.3098 172° South  Level Estimated
Wed 12:52:49 AM 67.4404 109.3631 174° South  Level FlightAware Approximate
Wed 12:53:49 AM 67.3075 109.3989 172° South  Level Estimated
Wed 12:54:49 AM 67.1822 109.4465 174° South  Level FlightAware Approximate
Wed 12:55:49 AM 67.0492 109.4815 172° South  Level Estimated
Wed 12:56:49 AM 66.9096 109.5327 174° South  Level FlightAware Approximate
Wed 12:57:49 AM 66.7766 109.5668 172° South  Level Estimated
Wed 12:58:49 AM 66.6512 109.6126 174° South  Level FlightAware Approximate
Wed 12:59:49 AM 66.5182 109.6459 172° South  Level Estimated
Wed 01:00:49 AM 66.3929 109.6909 174° South  Level FlightAware Approximate
Wed 01:01:49 AM 66.2598 109.7234 172° South  Level Estimated
Wed 01:02:49 AM 66.1201 109.7718 174° South  Level FlightAware Approximate
Wed 01:03:49 AM 65.9871 109.8034 172° South  Level Estimated
Wed 01:04:49 AM 65.8617 109.8468 175° South  Level FlightAware Approximate
Wed 01:05:49 AM 65.7286 109.8777 172° South  Level Estimated
Wed 01:06:49 AM 65.5888 109.9244 175° South  Level FlightAware Approximate
Wed 01:07:49 AM 65.4557 109.9545 172° South  Level Estimated
Wed 01:08:49 AM 65.3303 109.9964 175° South  Level FlightAware Approximate
Wed 01:09:49 AM 65.1972 110.0258 172° South  Level Estimated
Wed 01:10:49 AM 65.0574 110.0708 175° South  Level FlightAware Approximate
Wed 01:11:49 AM 64.9243 110.0996 172° South  Level Estimated
Wed 01:12:49 AM 64.7988 110.1400 175° South  Level FlightAware Approximate
Wed 01:13:49 AM 64.6657 110.1681 172° South  Level Estimated
Wed 01:14:49 AM 64.5258 110.2116 175° South  Level FlightAware Approximate
Wed 01:15:49 AM 64.3927 110.2391 172° South  Level Estimated
Wed 01:16:49 AM 64.2672 110.2781 175° South  Level FlightAware Approximate
Wed 01:17:49 AM 64.1340 110.3049 172° South  Level Estimated
Wed 01:18:49 AM 63.9941 110.3470 175° South  Level FlightAware Approximate
Wed 01:19:49 AM 63.8610 110.3732 172° South  Level Estimated
Wed 01:20:49 AM 63.7355 110.4110 175° South  Level FlightAware Approximate
Wed 01:21:49 AM 63.6023 110.4366 173° South  Level Estimated
Wed 01:22:49 AM 63.4623 110.4773 175° South  Level FlightAware Approximate
Wed 01:23:49 AM 63.3291 110.5024 173° South  Level Estimated
Wed 01:24:49 AM 63.2036 110.5389 175° South  Level FlightAware Approximate
Wed 01:25:49 AM 63.0704 110.5635 173° South  Level Estimated
Wed 01:26:49 AM 62.9304 110.6029 175° South  Level FlightAware Approximate
Wed 01:27:49 AM 62.7972 110.6268 173° South  Level Estimated
Wed 01:28:49 AM 62.6716 110.6623 175° South  Level FlightAware Approximate
Wed 01:29:49 AM 62.5384 110.6858 173° South  Level Estimated
Wed 01:30:49 AM 62.3984 110.7239 175° South  Level FlightAware Approximate
Wed 01:31:49 AM 62.2651 110.7469 173° South  Level Estimated
Wed 01:32:49 AM 62.1395 110.7813 175° South  Level FlightAware Approximate
Wed 01:33:49 AM 62.0062 110.8037 173° South  Level Estimated
Wed 01:34:49 AM 61.8662 110.8408 176° South  Level FlightAware Approximate
Wed 01:35:49 AM 61.7330 110.8627 173° South  Level Estimated
Wed 01:36:49 AM 61.6073 110.8962 176° South  Level FlightAware Approximate
Wed 01:37:49 AM 61.4740 110.9177 173° South  Level Estimated
Wed 01:38:49 AM 61.3340 110.9537 176° South  Level FlightAware Approximate
Wed 01:39:49 AM 61.2007 110.9747 173° South  Level Estimated
Wed 01:40:49 AM 61.0750 111.0072 176° South  Level FlightAware Approximate
Wed 01:41:49 AM 60.9417 111.0278 173° South  Level Estimated
Wed 01:42:49 AM 60.8017 111.0628 176° South  Level FlightAware Approximate
Wed 01:43:49 AM 60.6684 111.0829 173° South  Level Estimated
Wed 01:44:49 AM 60.5427 111.1145 176° South  Level FlightAware Approximate
Wed 01:45:49 AM 60.4094 111.1343 173° South  Level Estimated
Wed 01:46:49 AM 60.2693 111.1683 176° South  Level FlightAware Approximate
Wed 01:47:49 AM 60.1359 111.1876 173° South  Level Estimated
Wed 01:48:49 AM 60.0102 111.2184 176° South  Level FlightAware Approximate
Wed 01:49:49 AM 59.8769 111.2373 173° South  Level Estimated
Wed 01:50:49 AM 59.7368 111.2704 176° South  Level FlightAware Approximate
Wed 01:51:49 AM 59.6034 111.2889 173° South  Level Estimated
Wed 01:52:49 AM 59.4777 111.3189 176° South  Level FlightAware Approximate
Wed 01:53:49 AM 59.3443 111.3371 173° South  Level Estimated
Wed 01:54:49 AM 59.2042 111.3694 176° South  Level FlightAware Approximate
Wed 01:55:49 AM 59.0709 111.3871 173° South  Level Estimated
Wed 01:56:49 AM 58.9451 111.4164 176° South  Level FlightAware Approximate
Wed 01:57:49 AM 58.8117 111.4338 173° South  Level Estimated
Wed 01:58:49 AM 58.6716 111.4653 176° South  Level FlightAware Approximate
Wed 01:59:49 AM 58.5382 111.4823 173° South  Level Estimated
Wed 02:00:49 AM 58.4124 111.5109 176° South  Level FlightAware Approximate
Wed 02:01:49 AM 58.2790 111.5276 174° South  Level Estimated
Wed 02:02:49 AM 58.1249 111.5602 176° South  Level FlightAware Approximate
Wed 02:03:49 AM 57.9915 111.5765 173° South  Level Estimated
Wed 02:04:49 AM 57.8657 111.6036 176° South  Level FlightAware Approximate
Wed 02:05:49 AM 57.7323 111.6196 174° South  Level Estimated
Wed 02:06:49 AM 57.5921 111.6487 176° South  Level FlightAware Approximate
Wed 02:07:49 AM 57.4587 111.6644 174° South  Level Estimated
Wed 02:08:49 AM 57.3328 111.6909 176° South  Level FlightAware Approximate
Wed 02:09:49 AM 57.1994 111.7063 174° South  Level Estimated
Wed 02:10:49 AM 57.0592 111.7347 176° South  Level FlightAware Approximate
Wed 02:11:49 AM 56.9257 111.7498 174° South  Level Estimated
Wed 02:12:49 AM 56.7999 111.7757 177° South  Level FlightAware Approximate
Wed 02:13:49 AM 56.6665 111.7905 174° South  Level Estimated
Wed 02:14:49 AM 56.5262 111.8183 177° South  Level FlightAware Approximate
Wed 02:15:49 AM 56.3927 111.8328 174° South  Level Estimated
Wed 02:16:49 AM 56.2669 111.8581 177° South  Level FlightAware Approximate
Wed 02:17:49 AM 56.1334 111.8723 174° South  Level Estimated
Wed 02:18:49 AM 55.9932 111.8995 177° South  Level FlightAware Approximate
Wed 02:19:49 AM 55.8597 111.9135 174° South  Level Estimated
Wed 02:20:49 AM 55.7234 111.9400 177° South  Level FlightAware Approximate
Wed 02:21:49 AM 55.5900 111.9536 174° South  Level Estimated
Wed 02:22:49 AM 55.4498 111.9816 177° South  Level FlightAware Approximate
Wed 02:23:49 AM 55.3163 111.9950 173° South  Level Estimated
Wed 02:24:49 AM 55.1905 112.0205 177° South  Level FlightAware Approximate
Wed 02:25:49 AM 55.0570 112.0336 174° South  Level Estimated
Wed 02:26:49 AM 54.9168 112.0610 177° South  Level FlightAware Approximate
Wed 02:27:49 AM 54.7833 112.0738 173° South  Level Estimated
Wed 02:28:49 AM 54.6574 112.0988 177° South  Level FlightAware Approximate
Wed 02:29:49 AM 54.5240 112.1115 174° South  Level Estimated
Wed 02:30:49 AM 54.3837 112.1383 177° South  Level FlightAware Approximate
Wed 02:31:49 AM 54.2502 112.1506 173° South  Level Estimated
Wed 02:32:49 AM 54.1244 112.1752 177° South  Level FlightAware Approximate
Wed 02:33:49 AM 53.9909 112.1873 174° South  Level Estimated
Wed 02:34:49 AM 53.8505 112.2133 177° South  Level FlightAware Approximate
Wed 02:35:49 AM 53.7170 112.2252 174° South  Level Estimated
Wed 02:36:49 AM 53.5911 112.2489 177° South  Level FlightAware Approximate
Wed 02:37:49 AM 53.4576 112.2606 174° South  Level Estimated
Wed 02:38:49 AM 53.3173 112.2860 177° South  Level FlightAware Approximate
Wed 02:39:49 AM 53.1838 112.2974 174° South  Level Estimated
Wed 02:40:49 AM 53.0579 112.3208 177° South  Level FlightAware Approximate
Wed 02:41:49 AM 52.9244 112.3319 174° South  Level Estimated
Wed 02:42:49 AM 52.7841 112.3570 177° South  Level FlightAware Approximate
Wed 02:43:49 AM 52.6506 112.3679 174° South  Level Estimated
Wed 02:44:49 AM 52.5247 112.3908 177° South  Level FlightAware Approximate
Wed 02:45:49 AM 52.3912 112.4015 174° South  Level Estimated
Wed 02:46:49 AM 52.2508 112.4262 177° South  Level FlightAware Approximate
Wed 02:47:49 AM 52.1173 112.4366 174° South  Level Estimated
Wed 02:48:49 AM 51.9914 112.4592 177° South  Level FlightAware Approximate
Wed 02:49:49 AM 51.8579 112.4695 174° South  Level Estimated
Wed 02:50:49 AM 51.7175 112.4937 177° South  Level FlightAware Approximate
Wed 02:51:49 AM 51.5840 112.5038 174° South  Level Estimated
Wed 02:52:49 AM 51.4468 112.5274 177° South  Level FlightAware Approximate
Wed 02:53:49 AM 51.3133 112.5372 174° South  Level Estimated
Wed 02:54:49 AM 51.1730 112.5610 177° South  Level FlightAware Approximate
Wed 02:55:49 AM 51.0394 112.5706 174° South  Level Estimated
Wed 02:56:49 AM 50.9135 112.5925 177° South  Level FlightAware Approximate
Wed 02:57:49 AM 50.7799 112.6019 174° South  Level Estimated
Wed 02:58:49 AM 50.6540 112.6237 177° South  Level FlightAware Approximate
Wed 02:59:49 AM 50.5204 112.6329 174° South  Level Estimated
Wed 03:00:49 AM 50.3801 112.6562 178° South  Level FlightAware Approximate
Wed 03:01:49 AM 50.2465 112.6652 174° South  Level Estimated
Wed 03:02:49 AM 50.1205 112.6866 178° South  Level FlightAware Approximate
Wed 03:03:49 AM 49.9870 112.6955 174° South  Level Estimated
Wed 03:04:49 AM 49.8466 112.7184 178° South  Level FlightAware Approximate
Wed 03:05:49 AM 49.7131 112.7271 174° South  Level Estimated
Wed 03:06:49 AM 49.5871 112.7482 178° South  Level FlightAware Approximate
Wed 03:07:49 AM 49.4535 112.7567 174° South  Level Estimated
Wed 03:08:49 AM 49.3131 112.7793 178° South  Level FlightAware Approximate
Wed 03:09:49 AM 49.1796 112.7876 174° South  Level Estimated
Wed 03:10:49 AM 49.0536 112.8084 178° South  Level FlightAware Approximate
Wed 03:11:49 AM 48.9200 112.8165 174° South  Level Estimated
Wed 03:12:49 AM 48.7796 112.8389 178° South  Level FlightAware Approximate
Wed 03:13:49 AM 48.6461 112.8468 174° South  Level Estimated
Wed 03:14:49 AM 48.5201 112.8674 178° South  Level FlightAware Approximate
Wed 03:15:49 AM 48.3865 112.8751 174° South  Level Estimated
Wed 03:16:49 AM 48.2461 112.8972 178° South  Level FlightAware Approximate
Wed 03:17:49 AM 48.1125 112.9047 174° South  Level Estimated
Wed 03:18:49 AM 47.9865 112.9252 178° South  Level FlightAware Approximate
Wed 03:19:49 AM 47.8530 112.9325 174° South  Level Estimated
Wed 03:20:49 AM 47.7125 112.9544 178° South  Level FlightAware Approximate
Wed 03:21:49 AM 47.5789 112.9615 174° South  Level Estimated
Wed 03:22:49 AM 47.4529 112.9817 178° South  Level FlightAware Approximate
Wed 03:23:49 AM 47.3194 112.9887 174° South  Level Estimated
Wed 03:24:49 AM 47.1789 113.0103 178° South  Level FlightAware Approximate
Wed 03:25:49 AM 47.0453 113.0171 174° South  Level Estimated
Wed 03:26:49 AM 46.9193 113.0371 178° South  Level FlightAware Approximate
Wed 03:27:49 AM 46.7858 113.0438 174° South  Level Estimated
Wed 03:28:49 AM 46.6453 113.0652 178° South  Level FlightAware Approximate
Wed 03:29:49 AM 46.5117 113.0716 174° South  Level Estimated
Wed 03:30:49 AM 46.3857 113.0915 178° South  Level FlightAware Approximate
Wed 03:31:49 AM 46.2521 113.0978 174° South  Level Estimated
Wed 03:32:49 AM 46.1117 113.1189 178° South  Level FlightAware Approximate
Wed 03:33:49 AM 45.9781 113.1251 174° South  Level Estimated
Wed 03:34:49 AM 45.8521 113.1447 178° South  Level FlightAware Approximate
Wed 03:35:49 AM 45.7184 113.1507 174° South  Level Estimated
Wed 03:36:49 AM 45.5780 113.1717 178° South  Level FlightAware Approximate
Wed 03:37:49 AM 45.4444 113.1775 174° South  Level Estimated
Wed 03:38:49 AM 45.3184 113.1970 178° South  Level FlightAware Approximate
Wed 03:39:49 AM 45.1848 113.2026 174° South  Level Estimated
Wed 03:40:49 AM 45.0443 113.2235 178° South  Level FlightAware Approximate
Wed 03:41:49 AM 44.9107 113.2289 174° South  Level Estimated
Wed 03:42:49 AM 44.7847 113.2483 178° South  Level FlightAware Approximate
Wed 03:43:49 AM 44.6511 113.2536 184° South  Level Estimated
Wed 03:44:49 AM 44.5065 113.2407 178° South  Level FlightAware Approximate
Wed 03:45:49 AM 44.3729 113.2461 185° South  Level Estimated
Wed 03:46:49 AM 44.2464 113.2315 178° South  Level FlightAware Approximate
Wed 03:47:49 AM 44.1127 113.2370 184° South  Level Estimated
Wed 03:48:49 AM 43.9717 113.2219 178° South  Level FlightAware Approximate
Wed 03:49:49 AM 43.8381 113.2275 185° South  Level Estimated
Wed 03:50:49 AM 43.7116 113.2129 178° South  Level FlightAware Approximate
Wed 03:51:49 AM 43.5780 113.2186 184° South  Level Estimated
Wed 03:52:49 AM 43.4370 113.2035 178° South  Level FlightAware Approximate
Wed 03:53:49 AM 43.3034 113.2093 185° South  Level Estimated
Wed 03:54:49 AM 43.1768 113.1946 178° South  Level FlightAware Approximate
Wed 03:55:49 AM 43.0432 113.2006 185° South  Level Estimated
Wed 03:56:49 AM 42.9022 113.1853 178° South  Level FlightAware Approximate
Wed 03:57:49 AM 42.7686 113.1914 185° South  Level Estimated
Wed 03:58:49 AM 42.6421 113.1766 178° South  Level FlightAware Approximate
Wed 03:59:49 AM 42.5085 113.1828 185° South  Level Estimated
Wed 04:00:49 AM 42.3674 113.1675 178° South  Level FlightAware Approximate
Wed 04:01:49 AM 42.2338 113.1739 185° South  Level Estimated
Wed 04:02:49 AM 42.1073 113.1589 178° South  Level FlightAware Approximate
Wed 04:03:49 AM 41.9737 113.1654 182° South  Level Estimated
Wed 04:04:49 AM 41.8203 113.1584 178° South  Level FlightAware Approximate
Wed 04:05:49 AM 41.6867 113.1649 133° Southeast  Level Estimated
Wed 04:06:49 AM 41.5855 113.3088 178° South  Level FlightAware Approximate
Wed 04:07:49 AM 41.4519 113.3140 135° Southeast  Level Estimated
Wed 04:08:49 AM 41.3375 113.4663 179° South  Level FlightAware Approximate
Wed 04:09:49 AM 41.2038 113.4703 133° Southeast  Level Estimated
Wed 04:10:49 AM 41.1023 113.6145 179° South  Level FlightAware Approximate
Wed 04:11:49 AM 40.9687 113.6171 135° Southeast  Level Estimated
Wed 04:12:49 AM 40.8539 113.7697 180° South  Level FlightAware Approximate
Wed 04:13:49 AM 40.7202 113.7710 133° Southeast  Level Estimated
Wed 04:14:49 AM 40.6183 113.9157 180° South  Level FlightAware Approximate
Wed 04:15:49 AM 40.4846 113.9157 137° Southeast  Level Estimated
Wed 04:16:49 AM 40.3589 114.0682 180° South  Level FlightAware Approximate
Wed 04:17:49 AM 40.2252 114.0668 143° Southeast  Level Estimated
Wed 04:18:49 AM 40.1122 114.1768 181° South  Level FlightAware Approximate
Wed 04:19:49 AM 39.9786 114.1744 145° Southeast  Level Estimated
Wed 04:20:49 AM 39.8518 114.2907 181° South  Level FlightAware Approximate
Wed 04:21:49 AM 39.7181 114.2872 143° Southeast  Level Estimated
Wed 04:22:49 AM 39.6049 114.3977 182° South  Level FlightAware Approximate
Wed 04:23:49 AM 39.4713 114.3932 145° Southeast  Level Estimated
Wed 04:24:49 AM 39.3442 114.5099 182° South  Level FlightAware Approximate
Wed 04:25:49 AM 39.2106 114.5042 147° Southeast  Level Estimated
Wed 04:26:49 AM 39.0901 114.6050 182° South  Level FlightAware Approximate
Wed 04:27:49 AM 38.9566 114.5984 168° South  Level Estimated
Wed 04:28:49 AM 38.8166 114.6368 182° South  Level FlightAware Approximate
Wed 04:29:49 AM 38.6830 114.6298 167° South  Level Estimated
Wed 04:30:49 AM 38.5574 114.6667 182° South  Level FlightAware Approximate
Wed 04:31:49 AM 38.4238 114.6593 168° South  Level Estimated
Wed 04:32:49 AM 38.2838 114.6981 183° South  Level FlightAware Approximate
Wed 04:33:49 AM 38.1502 114.6902 167° South  Level Estimated
Wed 04:34:49 AM 38.0219 114.7283 183° South  Level FlightAware Approximate
Wed 04:35:49 AM 37.8884 114.7201 167° South  Level Estimated
Wed 04:36:49 AM 37.7483 114.7597 183° South  Level FlightAware Approximate
Wed 04:37:49 AM 37.6148 114.7511 166° South  Level Estimated
Wed 04:38:49 AM 37.4891 114.7892 183° South  Level FlightAware Approximate
Wed 04:39:49 AM 37.3557 114.7802 167° South  Level Estimated
Wed 04:40:49 AM 37.2155 114.8202 183° South  Level FlightAware Approximate
Wed 04:41:49 AM 37.0821 114.8107 166° South  Level Estimated
Wed 04:42:49 AM 36.9563 114.8493 183° South  Level FlightAware Approximate
Wed 04:43:49 AM 36.8229 114.8394 167° South  Level Estimated
Wed 04:44:49 AM 36.6827 114.8798 184° South  Level FlightAware Approximate
Wed 04:45:49 AM 36.5493 114.8694 166° South  Level Estimated
Wed 04:46:49 AM 36.4235 114.9086 184° South  Level FlightAware Approximate
Wed 04:47:49 AM 36.2901 114.8977 185° South  Level Estimated
Wed 04:48:49 AM 36.1496 114.8811 184° South  Level FlightAware Approximate
Wed 04:49:49 AM 36.0162 114.8704 193° South  Level Estimated
Wed 04:50:49 AM 35.8920 114.8358 184° South  Level FlightAware Approximate
Wed 04:51:49 AM 35.7586 114.8253 192° South  Level Estimated
Wed 04:52:49 AM 35.6200 114.7882 184° South  Level FlightAware Approximate
Wed 04:53:49 AM 35.4866 114.7781 193° South  Level Estimated
Wed 04:54:49 AM 35.3624 114.7434 183° South  Level FlightAware Approximate
Wed 04:55:49 AM 35.2289 114.7337 192° South  Level Estimated
Wed 04:56:49 AM 35.0904 114.6964 183° South  Level FlightAware Approximate
Wed 04:57:49 AM 34.9569 114.6871 193° South  Level Estimated
Wed 04:58:49 AM 34.8326 114.6522 183° South  Level FlightAware Approximate
Wed 04:59:49 AM 34.6992 114.6433 193° South  Level Estimated
Wed 05:00:49 AM 34.5749 114.6083 183° South  Level FlightAware Approximate
Wed 05:01:49 AM 34.4414 114.5997 193° South  Level Estimated
Wed 05:02:49 AM 34.3029 114.5622 183° South  Level FlightAware Approximate
Wed 05:03:49 AM 34.1694 114.5540 193° South  Level Estimated
Wed 05:04:49 AM 34.0451 114.5188 183° South  Level FlightAware Approximate
Wed 05:05:49 AM 33.9116 114.5111 193° South  Level Estimated
Wed 05:06:49 AM 33.7730 114.4733 183° South  Level FlightAware Approximate
Wed 05:07:49 AM 33.6395 114.4660 193° South  Level Estimated
Wed 05:08:49 AM 33.5042 114.4287 182° South  Level FlightAware Approximate
Wed 05:09:49 AM 33.3706 114.4219 193° South  Level Estimated
Wed 05:10:49 AM 33.2320 114.3840 182° South  Level FlightAware Approximate
Wed 05:11:49 AM 33.0985 114.3776 194° South  Level Estimated
Wed 05:12:49 AM 32.9742 114.3418 182° South  Level FlightAware Approximate
Wed 05:13:49 AM 32.8406 114.3359 193° South  Level Estimated
Wed 05:14:49 AM 32.7020 114.2976 182° South  Level FlightAware Approximate
Wed 05:15:49 AM 32.5684 114.2922 194° South  Level Estimated
Wed 05:16:49 AM 32.4442 114.2560 182° South  Level FlightAware Approximate
Wed 05:17:49 AM 32.3106 114.2510 193° South  Level Estimated
Wed 05:18:49 AM 32.1720 114.2123 182° South  Level FlightAware Approximate
Wed 05:19:49 AM 32.0383 114.2078 194° South  Level Estimated
Wed 05:20:49 AM 31.9141 114.1711 181° South  Level FlightAware Approximate
Wed 05:21:49 AM 31.7805 114.1672 194° South  Level Estimated
Wed 05:22:49 AM 31.6418 114.1279 181° South  Level FlightAware Approximate
Wed 05:23:49 AM 31.5082 114.1246 194° South  Level Estimated
Wed 05:24:49 AM 31.3839 114.0872 181° South  Level FlightAware Approximate
Wed 05:25:49 AM 31.2503 114.0844 194° South  Level Estimated
Wed 05:26:49 AM 31.1117 114.0445 181° South  Level FlightAware Approximate
Wed 05:27:49 AM 30.9780 114.0423 195° South  Level Estimated
Wed 05:28:49 AM 30.8537 114.0042 181° South  Level FlightAware Approximate
Wed 05:29:49 AM 30.7201 114.0027 194° South  Level Estimated
Wed 05:30:49 AM 30.5814 113.9620 180° South  Level FlightAware Approximate
Wed 05:31:49 AM 30.4478 113.9612 195° South  Level Estimated
Wed 05:32:49 AM 30.3235 113.9222 180° South  Level FlightAware Approximate
Wed 05:33:49 AM 30.1898 113.9221 195° South  Level Estimated
Wed 05:34:49 AM 30.0512 113.8804 180° South  Level FlightAware Approximate
Wed 05:35:49 AM 29.9175 113.8810 196° South  Level Estimated
Wed 05:36:49 AM 29.7932 113.8410 179° South  Level FlightAware Approximate
Wed 05:37:49 AM 29.6595 113.8424 195° South  Level Estimated
Wed 05:38:49 AM 29.5208 113.7997 179° South  Level FlightAware Approximate
Wed 05:39:49 AM 29.3872 113.8019 196° South  Level Estimated
Wed 05:40:49 AM 29.2628 113.7607 179° South  Level FlightAware Approximate
Wed 05:41:49 AM 29.1292 113.7639 196° South  Level Estimated
Wed 05:42:49 AM 28.9905 113.7198 178° South  Level FlightAware Approximate
Wed 05:43:49 AM 28.8568 113.7239 197° South  Level Estimated
Wed 05:44:49 AM 28.7324 113.6813 178° South  Level FlightAware Approximate
Wed 05:45:49 AM 28.5988 113.6864 196° South  Level Estimated
Wed 05:46:49 AM 28.4601 113.6407 178° South  Level FlightAware Approximate
Wed 05:47:49 AM 28.3265 113.6470 197° South  Level Estimated
Wed 05:48:49 AM 28.2020 113.6026 177° South  Level FlightAware Approximate
Wed 05:49:49 AM 28.0685 113.6100 197° South  Level Estimated
Wed 05:50:49 AM 27.9296 113.5625 177° South  Level FlightAware Approximate
Wed 05:51:49 AM 27.7961 113.5712 198° South  Level Estimated
Wed 05:52:49 AM 27.6715 113.5247 176° South  Level FlightAware Approximate
Wed 05:53:49 AM 27.5381 113.5348 163° South  Level Estimated
Wed 05:54:49 AM 27.3934 113.5850 177° South  Level FlightAware Approximate
Wed 05:55:49 AM 27.2600 113.5940 153° Southeast  Level Estimated
Wed 05:56:49 AM 27.1422 113.6615 177° South  Level FlightAware Approximate
Wed 05:57:49 AM 27.0087 113.6687 154° Southeast  Level Estimated
Wed 05:58:49 AM 26.8770 113.7419 178° South  Level FlightAware Approximate
Wed 05:59:49 AM 26.7434 113.7471 152° Southeast  Level Estimated
Wed 06:00:49 AM 26.6257 113.8177 179° South  Level FlightAware Approximate
Wed 06:01:49 AM 26.4921 113.8208 152° Southeast  Level Estimated
Wed 06:02:49 AM 26.3605 113.8973 180° South  Level FlightAware Approximate
Wed 06:03:49 AM 26.2268 113.8979 150° Southeast  Level Estimated
Wed 06:04:49 AM 26.1091 113.9725 181° South  Level FlightAware Approximate
Wed 06:05:49 AM 25.9754 113.9704 152° Southeast  Level Estimated
Wed 06:06:49 AM 25.8349 114.0532 182° South  Level FlightAware Approximate
Wed 06:07:49 AM 25.7013 114.0478 149° Southeast  Level Estimated
Wed 06:08:49 AM 25.5832 114.1266 183° South  Level FlightAware Approximate
Wed 06:09:49 AM 25.4498 114.1178 150° Southeast  Level Estimated
Wed 06:10:49 AM 25.3175 114.2038 185° South  Level FlightAware Approximate
Wed 06:11:49 AM 25.1843 114.1907 155° Southeast  Level Estimated
Wed 06:12:49 AM 25.0574 114.2574 187° South  Level FlightAware Approximate
Wed 06:13:49 AM 24.9247 114.2405 196° South  Level Estimated
Wed 06:14:49 AM 24.7880 114.1986 186° South  Level FlightAware Approximate
Wed 06:15:49 AM 24.6551 114.1831 197° South  Level Estimated
Wed 06:16:49 AM 24.5327 114.1431 185° South  Level FlightAware Approximate
Wed 06:17:49 AM 24.3996 114.1292 207° Southwest  Level Estimated
Wed 06:18:49 AM 24.2722 114.0576 184° South  Level FlightAware Approximate
Wed 06:19:49 AM 24.1388 114.0478 236° Southwest  Level Estimated
Wed 06:20:49 AM 24.0521 113.9054 180° South  Level FlightAware Approximate
Wed 06:21:49 AM 23.9185 113.9062 236° Southwest  Level Estimated
Wed 06:22:49 AM 23.8196 113.7454 174° South  Level FlightAware Approximate
Wed 06:23:49 AM 23.6867 113.7604 240° Southwest  Level Estimated
Wed 06:24:49 AM 23.5992 113.5942 167° South  Level FlightAware Approximate
Wed 06:25:49 AM 23.4690 113.6269 240° Southwest  Level Estimated
Wed 06:26:49 AM 23.3636 113.4293 157° South  Level FlightAware Approximate
Wed 06:27:49 AM 23.2406 113.4863 235° Southwest  Level Estimated
Wed 06:28:49 AM 23.1255 113.3088 145° Southeast  Level FlightAware Approximate
Wed 06:29:49 AM 23.0154 113.3910 246° West  Level Estimated
Wed 06:30:49 AM 22.9014 113.1176 129° Southeast  Level FlightAware Approximate
Wed 06:31:49 AM 22.8179 113.2308 205° Southwest  Level Estimated
Wed 06:32:49 AM 22.7245 113.1837 121° Southeast  Level FlightAware Approximate
Wed 06:33:49 AM 22.6547 113.3073 122° Southeast  Level Estimated
Wed 06:34:49 AM 22.5807 113.4373 116° Southeast  Level FlightAware Approximate
Wed 06:35:49 AM 22.5212 113.5669 116° Southeast  Level FlightAware Approximate
Wed 06:36:49 AM 22.4615 113.6964 117° Southeast  Level FlightAware Approximate
Wed 06:37:49 AM 22.4017 113.8257 117° Southeast  Level FlightAware Approximate
Wed 06:38:49 AM 22.3418 113.9550 117° Southeast  Level FlightAware Approximate
Wed 06:39:49 AM 22.2818 114.0841 72° East  Level FlightAware Approximate
Wed 06:40:49 AM 22.3167 114.2000 268° West  Level FlightAware Approximate
Wed 06:41:49 AM 22.3128 114.0556 213° Southwest  Level Estimated
Wed 06:42:49 AM 22.1991 113.9762 63° Northeast  Level FlightAware Approximate
Wed 06:43:49 AM 22.2607 114.1043 58° Northeast  Level FlightAware Approximate
Wed 06:44:49 AM 22.3167 114.2000 268° West  Level FlightAware Approximate
Wed 06:45:49 AM 22.3128 114.0556 268° West  Level Estimated
Wed 06:46:49 AM 22.3088 113.9111 102° East  Level Estimated
Wed 06:47:49 AM 22.2799 114.0522 78° East  Level FlightAware Approximate
Wed 06:48:49 AM 22.3062 114.1825 271° West  Level FlightAware Approximate
Wed 06:49:49 AM 22.3077 114.0380 87° East  Level Estimated
Wed 06:50:49 AM 22.3167 114.2000 268° West  Level FlightAware Approximate
Wed 06:51:49 AM 22.3128 114.0556 88° East  Level Estimated
Wed 06:52:49 AM 22.3167 114.2000 268° West  Level FlightAware Approximate
Wed 06:53:49 AM 22.3128 114.0556 88° East  Level Estimated
Wed 06:54:49 AM 22.3167 114.2000 268° West  Level FlightAware Approximate
Wed 06:55:49 AM 22.3128 114.0556 88° East  Level Estimated
Wed 06:56:49 AM 22.3167 114.2000 268° West  Level FlightAware Approximate
Wed 06:57:49 AM 22.3128 114.0556 88° East  Level Estimated
Wed 06:58:49 AM 22.3167 114.2000 268° West  Level FlightAware Approximate
Wed 06:59:49 AM 22.3128 114.0556 88° East  Level Estimated
Wed 07:00:49 AM 22.3167 114.2000 268° West  Level FlightAware Approximate
Wed 07:01:49 AM 22.3128 114.0556 88° East  Level Estimated
Wed 07:02:49 AM 22.3167 114.2000 268° West  Level FlightAware Approximate
Wed 07:03:49 AM 22.3128 114.0556 88° East  Level Estimated
Wed 07:04:49 AM 22.3167 114.2000 268° West  Level FlightAware Approximate
Wed 07:05:49 AM 22.3128 114.0556 88° East  Level Estimated
Wed 07:06:49 AM 22.3167 114.2000 88° East  Level FlightAware Approximate

Login

Don't have an account? Register now (free) for customized features, flight alerts, and more!